KLGB/LGB METAR and TAF weather

Enter ICAO airport designator
Station Type Date Time Source
KLGB METAR 2023/02/04 01:53 UTC NOAA

KLGB 040153Z 29009KT 10SM CLR 17/04 A3014 RMK AO2 SLP207 T01720044


Station Type Date Time Source
KLGB Decoded METAR 2023/02/04 01:53 UTC NOAA

LONG BEACH AIRPORT, CA, United States (KLGB) 33-49N 118-09W 10M
Feb 03, 2023 - 08:53 PM EST / 2023.02.04 0153 UTC
Wind: from the WNW (290 degrees) at 10 MPH (9 KT):0
Visibility: 10 mile(s):0
Sky conditions: clear
Temperature: 63.0 F (17.2 C)
Dew Point: 39.9 F (4.4 C)
Relative Humidity: 42%
Pressure (altimeter): 30.14 in. Hg (1020 hPa)
ob: KLGB 040153Z 29009KT 10SM CLR 17/04 A3014 RMK AO2 SLP207 T01720044
cycle: 2

Station Type Date Time Source
KLGB TAF 2023/02/03 18:27 UTC NOAA

TAF KLGB 031725Z 0318/0418 VRB03KT P6SM BKN150
FM032000 20007KT P6SM BKN150
FM040100 29008KT P6SM SCT150
FM040600 VRB03KT P6SM SCT150

Example: see airport list